EDDL/DUS METAR and TAF weather

Enter ICAO airport designator
Station Type Date Time Source
EDDL METAR 2018/04/27 00:50 UTC NOAA

EDDL 270050Z 20004KT CAVOK 06/03 Q1016 NOSIG


Station Type Date Time Source
EDDL Decoded METAR 2018/04/27 00:50 UTC NOAA

Duesseldorf, Germany (EDDL) 51-18N 006-46E 41M
Apr 26, 2018 - 08:50 PM EDT / 2018.04.27 0050 UTC
Wind: from the SSW (200 degrees) at 5 MPH (4 KT):0
Visibility: greater than 7 mile(s):0
Temperature: 42 F (6 C)
Dew Point: 37 F (3 C)
Relative Humidity: 81%
Pressure (altimeter): 30.00 in. Hg (1016 hPa)
ob: EDDL 270050Z 20004KT CAVOK 06/03 Q1016 NOSIG
cycle: 1

Station Type Date Time Source
EDDL TAF 2018/04/26 18:35 UTC NOAA

TAF EDDL 261700Z 2618/2724 27007KT CAVOK
TEMPO 2618/2620 SHRA BKN030TCU
BECMG 2620/2623 VRB03KT
BECMG 2623/2702 15007KT


Example: see airport list